Wanda, Nebraska
Current Conditions -  °F | °C
As of 9:53 PM on Wednesday 26 Nov 2014 (Local Time) from KHSI Reporting Station
Scattered Clouds Scattered Clouds  
Wind Chill: 20°   Ceiling: Unl
Heat Index: 20°   Visibility: 10mi
Dew Point: 14°   Wind: 3mph
Humidity: 78%   Direction: 350°N
Pressure: 30.42"   Gusts: NA
Location:  40.6115°N, 98.6672°W
Report Text: KHSI 270353Z AUTO 35003KT 10SM SCT120 M07/M10 A3042 RMK AO2 SLP328 T10671100
Loading
Personal Weather Stations






























Interactive Weather Map New forecast layout! Learn more

10-Day Weather Forecast

Advertisements
Track Severe Weather on mobile